createdAt,value
2017-05-06T00:02:03.114Z,8.3
2017-05-06T00:07:03.250Z,8.2
2017-05-06T00:12:03.076Z,8.1
2017-05-06T00:17:03.116Z,7.9
2017-05-06T00:22:02.917Z,7.9
2017-05-06T00:27:02.820Z,7.8
2017-05-06T00:32:02.929Z,7.8
2017-05-06T00:37:02.831Z,7.7
2017-05-06T00:42:03.015Z,7.7
2017-05-06T00:47:02.886Z,7.7
2017-05-06T00:52:02.710Z,7.6
2017-05-06T00:57:03.555Z,7.5
2017-05-06T01:02:03.363Z,7.4
2017-05-06T01:07:03.176Z,7.2
2017-05-06T01:12:03.248Z,7.2
2017-05-06T01:17:03.256Z,7.2
2017-05-06T01:22:02.964Z,7.2
2017-05-06T01:27:02.820Z,7.1
2017-05-06T01:32:03.587Z,7.2
2017-05-06T01:37:02.767Z,7.2
2017-05-06T01:42:02.959Z,7.1
2017-05-06T01:47:03.202Z,7.0
2017-05-06T01:52:03.426Z,6.8
2017-05-06T01:57:02.737Z,6.8
2017-05-06T02:02:03.035Z,6.7
2017-05-06T02:07:03.614Z,6.6
2017-05-06T02:12:03.495Z,6.4
2017-05-06T02:17:03.448Z,6.4
2017-05-06T02:22:03.278Z,6.4
2017-05-06T02:27:03.373Z,6.3
2017-05-06T02:32:03.289Z,6.3
2017-05-06T02:37:02.863Z,6.2
2017-05-06T02:42:03.538Z,6.2
2017-05-06T02:47:03.141Z,6.3
2017-05-06T02:52:03.476Z,6.3
2017-05-06T02:57:02.779Z,6.4
2017-05-06T03:02:03.134Z,6.4
2017-05-06T03:07:03.597Z,6.3
2017-05-06T03:12:03.133Z,6.2
2017-05-06T03:17:05.385Z,6.1
2017-05-06T03:22:02.879Z,6.1
2017-05-06T03:27:03.180Z,6.0
2017-05-06T03:32:17.535Z,5.9
2017-05-06T03:37:03.071Z,5.7
2017-05-06T03:42:03.395Z,5.6
2017-05-06T03:47:13.376Z,5.5
2017-05-06T03:52:02.833Z,5.4
2017-05-06T03:57:03.346Z,5.4
2017-05-06T04:02:13.228Z,5.4
2017-05-06T04:07:03.424Z,5.4
2017-05-06T04:12:03.004Z,5.4
2017-05-06T04:22:02.910Z,5.6
2017-05-06T04:27:03.275Z,5.8
2017-05-06T04:32:17.989Z,5.8
2017-05-06T04:37:02.986Z,6.2
2017-05-06T04:42:03.241Z,6.0
2017-05-06T04:47:14.140Z,6.0
2017-05-06T04:52:02.879Z,6.1
2017-05-06T04:57:03.166Z,6.3
2017-05-06T05:02:13.828Z,6.4
2017-05-06T05:07:02.835Z,6.4
2017-05-06T05:12:03.340Z,6.6
2017-05-06T05:17:18.400Z,6.8
2017-05-06T05:22:02.749Z,6.8
2017-05-06T05:27:03.175Z,7.0
2017-05-06T05:32:13.346Z,7.5
2017-05-06T05:37:03.025Z,7.9
2017-05-06T05:42:03.022Z,7.9
2017-05-06T05:47:13.977Z,8.8
2017-05-06T05:52:03.256Z,9.2
2017-05-06T05:57:03.507Z,9.1
2017-05-06T06:02:14.520Z,9.4
2017-05-06T06:07:03.434Z,9.8
2017-05-06T06:12:03.048Z,10.4
2017-05-06T06:22:02.891Z,11.1
2017-05-06T06:27:03.280Z,11.0
2017-05-06T06:32:11.231Z,11.2
2017-05-06T06:37:03.435Z,11.6
2017-05-06T06:42:02.854Z,12.3
2017-05-06T06:47:13.037Z,12.6
2017-05-06T06:52:02.904Z,12.8
2017-05-06T06:57:03.333Z,12.7
2017-05-06T07:02:16.441Z,13.4
2017-05-06T07:07:03.397Z,14.5
2017-05-06T07:12:03.004Z,14.9
2017-05-06T07:17:13.723Z,14.9
2017-05-06T07:22:03.487Z,15.3
2017-05-06T07:27:02.798Z,15.6
2017-05-06T07:32:13.584Z,15.9
2017-05-06T07:37:03.481Z,15.9
2017-05-06T07:42:02.959Z,16.8
2017-05-06T07:47:17.128Z,16.8
2017-05-06T07:52:03.131Z,17.1
2017-05-06T07:57:03.459Z,17.1
2017-05-06T08:02:17.558Z,17.4
2017-05-06T08:07:03.324Z,17.9
2017-05-06T08:12:02.902Z,18.4
2017-05-06T08:17:13.936Z,18.7
2017-05-06T08:22:03.224Z,19.1
2017-05-06T08:27:03.623Z,19.0
2017-05-06T08:32:13.734Z,19.3
2017-05-06T08:37:03.209Z,19.9
2017-05-06T08:42:03.529Z,19.8
2017-05-06T08:47:17.664Z,20.6
2017-05-06T08:52:02.662Z,21.1
2017-05-06T08:57:03.107Z,21.1
2017-05-06T09:02:14.068Z,22.2
2017-05-06T09:07:03.247Z,22.2
2017-05-06T09:12:02.890Z,22.1
2017-05-06T09:17:17.845Z,22.2
2017-05-06T09:22:03.179Z,22.4
2017-05-06T09:27:03.453Z,22.4
2017-05-06T09:32:13.429Z,22.6
2017-05-06T09:37:02.825Z,23.1
2017-05-06T09:42:03.187Z,23.6
2017-05-06T09:47:13.834Z,23.9
2017-05-06T09:52:03.280Z,24.7
2017-05-06T09:57:03.198Z,24.7
2017-05-06T10:02:15.047Z,25.4
2017-05-06T10:07:03.146Z,25.3
2017-05-06T10:12:03.930Z,25.8
2017-05-06T10:17:22.803Z,26.1
2017-05-06T10:22:03.589Z,25.8
2017-05-06T10:27:03.075Z,25.6
2017-05-06T10:32:17.767Z,26.0
2017-05-06T10:37:03.211Z,26.5
2017-05-06T10:42:03.303Z,26.6
2017-05-06T10:47:22.564Z,26.6
2017-05-06T10:52:03.539Z,26.7
2017-05-06T10:57:03.033Z,26.6
2017-05-06T11:02:17.519Z,26.6
2017-05-06T11:07:03.435Z,27.0
2017-05-06T11:12:03.101Z,26.3
2017-05-06T11:17:13.780Z,26.1
2017-05-06T11:22:03.260Z,26.0
2017-05-06T11:27:03.155Z,25.8
2017-05-06T11:32:13.307Z,25.6
2017-05-06T11:37:02.689Z,26.0
2017-05-06T11:42:03.047Z,26.0
2017-05-06T11:47:16.713Z,26.8
2017-05-06T11:52:03.497Z,26.8
2017-05-06T11:57:03.018Z,26.6
2017-05-06T12:02:16.215Z,26.6
2017-05-06T12:07:03.307Z,25.8
2017-05-06T12:12:02.845Z,25.8
2017-05-06T12:17:14.103Z,26.0
2017-05-06T12:22:03.130Z,25.5
2017-05-06T12:27:03.417Z,25.5
2017-05-06T12:32:13.873Z,25.1
2017-05-06T12:37:02.685Z,24.7
2017-05-06T12:42:03.150Z,24.6
2017-05-06T12:47:12.621Z,24.5
2017-05-06T12:52:02.968Z,24.0
2017-05-06T12:57:03.398Z,24.0
2017-05-06T13:02:13.139Z,23.7
2017-05-06T13:07:03.082Z,23.4
2017-05-06T13:12:03.487Z,23.2
2017-05-06T13:17:13.663Z,23.1
2017-05-06T13:22:03.292Z,23.1
2017-05-06T13:27:03.635Z,23.1
2017-05-06T13:32:16.849Z,23.4
2017-05-06T13:37:02.795Z,23.7
2017-05-06T13:42:03.228Z,23.8
2017-05-06T13:47:18.241Z,23.9
2017-05-06T13:52:03.330Z,23.4
2017-05-06T13:57:02.721Z,23.4
2017-05-06T14:02:13.438Z,22.9
2017-05-06T14:07:03.066Z,22.8
2017-05-06T14:12:03.472Z,22.6
2017-05-06T14:17:13.160Z,22.4
2017-05-06T14:22:02.754Z,21.9
2017-05-06T14:27:03.210Z,21.9
2017-05-06T14:32:13.537Z,21.1
2017-05-06T14:37:02.841Z,21.1
2017-05-06T14:42:03.222Z,20.8
2017-05-06T14:47:07.532Z,20.7
2017-05-06T14:52:03.115Z,20.3
2017-05-06T14:57:03.441Z,19.7
2017-05-06T15:02:17.020Z,19.6
2017-05-06T15:07:03.127Z,19.1
2017-05-06T15:12:03.557Z,19.0
2017-05-06T15:17:13.161Z,18.5
2017-05-06T15:22:03.001Z,18.5
2017-05-06T15:27:03.360Z,18.3
2017-05-06T15:32:12.303Z,18.0
2017-05-06T15:37:03.317Z,17.5
2017-05-06T15:42:02.703Z,16.6
2017-05-06T15:47:17.819Z,16.2
2017-05-06T15:52:03.547Z,16.0
2017-05-06T15:57:03.399Z,15.9
2017-05-06T16:07:03.406Z,15.7
2017-05-06T16:12:03.042Z,15.6
2017-05-06T16:17:13.560Z,15.6
2017-05-06T16:22:03.379Z,15.5
2017-05-06T16:27:03.381Z,15.4
2017-05-06T16:32:13.193Z,15.3
2017-05-06T16:37:03.269Z,15.2
2017-05-06T16:42:02.712Z,15.1
2017-05-06T16:47:13.437Z,15.0
2017-05-06T16:52:03.490Z,15.0
2017-05-06T16:57:02.916Z,14.9
2017-05-06T17:02:13.462Z,15.1
2017-05-06T17:07:02.894Z,15.1
2017-05-06T17:12:03.476Z,15.2
2017-05-06T17:17:13.449Z,15.1
2017-05-06T17:22:03.448Z,15.1
2017-05-06T17:27:02.844Z,14.9
2017-05-06T17:32:13.700Z,14.7
2017-05-06T17:37:02.707Z,14.6
2017-05-06T17:42:03.230Z,14.4
2017-05-06T17:47:13.878Z,14.3
2017-05-06T17:52:03.032Z,14.3
2017-05-06T17:57:03.385Z,14.2
2017-05-06T18:07:03.224Z,14.1
2017-05-06T18:12:02.965Z,14.2
2017-05-06T18:17:13.541Z,14.2
2017-05-06T18:22:03.117Z,14.1
2017-05-06T18:27:03.614Z,14.0
2017-05-06T18:32:09.748Z,14.0
2017-05-06T18:37:03.223Z,13.9
2017-05-06T18:42:03.447Z,13.6
2017-05-06T18:47:13.365Z,13.5
2017-05-06T18:52:03.499Z,13.5
2017-05-06T18:57:03.124Z,13.4
2017-05-06T19:02:09.124Z,13.3
2017-05-06T19:07:02.932Z,13.1
2017-05-06T19:12:03.526Z,13.1
2017-05-06T19:17:06.221Z,13.0
2017-05-06T19:22:03.434Z,13.0
2017-05-06T19:27:02.760Z,12.9
2017-05-06T19:32:03.111Z,12.8
2017-05-06T19:37:03.345Z,12.8
2017-05-06T19:42:02.981Z,12.9
2017-05-06T19:47:03.458Z,12.8
2017-05-06T19:52:03.570Z,12.9
2017-05-06T19:57:02.935Z,12.9
2017-05-06T20:02:03.266Z,12.8
2017-05-06T20:07:03.596Z,12.8
2017-05-06T20:12:03.069Z,12.7
2017-05-06T20:17:03.448Z,12.8
2017-05-06T20:22:02.714Z,12.8
2017-05-06T20:27:03.112Z,12.7
2017-05-06T20:32:03.709Z,12.8
2017-05-06T20:37:03.615Z,12.7
2017-05-06T20:42:02.998Z,12.7
2017-05-06T20:47:03.252Z,12.6
2017-05-06T20:52:03.550Z,12.7
2017-05-06T20:57:02.889Z,12.7
2017-05-06T21:02:03.174Z,12.6
2017-05-06T21:07:03.570Z,12.6
2017-05-06T21:12:03.064Z,12.7
2017-05-06T21:17:03.384Z,12.7
2017-05-06T21:22:03.669Z,12.7
2017-05-06T21:27:03.121Z,12.7
2017-05-06T21:32:03.246Z,12.7
2017-05-06T21:37:03.519Z,12.6
2017-05-06T21:42:02.996Z,12.5
2017-05-06T21:47:03.519Z,12.5
2017-05-06T21:52:03.394Z,12.4
2017-05-06T21:57:02.719Z,12.4
2017-05-06T22:02:03.170Z,12.4
2017-05-06T22:07:03.486Z,12.4
2017-05-06T22:12:03.682Z,12.4
2017-05-06T22:22:03.789Z,12.4
2017-05-06T22:27:03.128Z,12.4
2017-05-06T22:32:02.853Z,12.3
2017-05-06T22:37:03.605Z,12.3
2017-05-06T22:42:03.327Z,12.3
2017-05-06T22:47:02.955Z,12.3
2017-05-06T22:52:02.636Z,12.3
2017-05-06T22:57:03.131Z,12.4
2017-05-06T23:02:02.746Z,12.3
2017-05-06T23:07:03.319Z,12.3
2017-05-06T23:12:03.398Z,12.3
2017-05-06T23:17:03.462Z,12.4
2017-05-06T23:22:02.958Z,12.3
2017-05-06T23:27:03.708Z,12.3
2017-05-06T23:32:03.711Z,12.3
2017-05-06T23:37:03.283Z,12.2
2017-05-06T23:42:03.129Z,12.3
2017-05-06T23:47:03.251Z,12.3
2017-05-06T23:52:02.889Z,12.3
2017-05-06T23:57:03.028Z,12.3
